Time;durP1;ratioP1;P1;durP2;ratioP2;P2;SDS_P1;SDS_P2;PMS_P1;PMS_P2;Temp;Humidity;BMP_temperature;BMP_pressure;BME280_temperature;BME280_humidity;BME280_pressure;Samples;Min_cycle;Max_cycle;Signal;HPM_P1;HPM_P2
2022/07/20 02:47:20;;;;;;;5.43;2.60;;;21.50;75.60;;;;;;5417844;23;88139;-70
2022/07/20 02:49:45;;;;;;;7.00;2.50;;;21.50;75.40;;;;;;4899484;28;87152;-72
2022/07/20 02:52:11;;;;;;;5.07;2.50;;;21.50;75.50;;;;;;4896565;28;88216;-70
2022/07/20 02:54:37;;;;;;;8.18;2.90;;;21.50;75.60;;;;;;4901064;28;87835;-73
2022/07/20 02:57:03;;;;;;;5.38;2.95;;;21.50;76.00;;;;;;4901090;28;86907;-72
2022/07/20 02:59:28;;;;;;;5.40;2.78;;;21.40;76.90;;;;;;4902035;28;87249;-72
2022/07/20 03:01:54;;;;;;;8.10;3.45;;;21.40;76.70;;;;;;4901474;28;87696;-70
2022/07/20 03:04:20;;;;;;;7.95;2.50;;;21.30;77.10;;;;;;4898537;28;87008;-71
2022/07/20 03:06:45;;;;;;;4.90;2.30;;;21.30;76.80;;;;;;4883211;28;86997;-71
2022/07/20 03:09:11;;;;;;;6.00;2.60;;;21.40;76.70;;;;;;4899553;28;86450;-70
2022/07/20 03:11:37;;;;;;;6.93;2.75;;;21.40;77.20;;;;;;4901105;28;88278;-70
2022/07/20 03:14:02;;;;;;;5.93;2.78;;;21.40;76.50;;;;;;4902069;28;87326;-71
2022/07/20 03:16:28;;;;;;;6.15;2.92;;;21.30;76.80;;;;;;4899512;28;87924;-71
2022/07/20 03:18:54;;;;;;;9.10;2.90;;;21.30;76.70;;;;;;4901689;28;87124;-71
2022/07/20 03:21:19;;;;;;;9.43;2.65;;;21.30;77.00;;;;;;4901346;28;87129;-73
2022/07/20 03:23:45;;;;;;;4.82;2.53;;;21.20;77.20;;;;;;4901996;28;87409;-70
2022/07/20 03:26:11;;;;;;;5.85;2.95;;;21.10;77.60;;;;;;4897304;28;86563;-70
2022/07/20 03:28:37;;;;;;;5.85;2.70;;;21.20;77.40;;;;;;4900795;28;87102;-72
2022/07/20 03:31:02;;;;;;;8.88;2.95;;;21.20;78.00;;;;;;4898231;28;87051;-71
2022/07/20 03:33:28;;;;;;;5.28;2.70;;;21.10;78.50;;;;;;4901995;28;87616;-71
2022/07/20 03:35:54;;;;;;;5.72;3.58;;;21.00;78.70;;;;;;4902333;28;87003;-70
2022/07/20 03:38:19;;;;;;;7.55;2.92;;;21.10;78.70;;;;;;4892995;28;87068;-71
2022/07/20 03:40:45;;;;;;;8.52;3.50;;;21.10;79.00;;;;;;4886600;28;87904;-70
2022/07/20 03:43:11;;;;;;;11.93;2.65;;;21.10;78.80;;;;;;4900911;28;87877;-72
2022/07/20 03:45:36;;;;;;;7.65;3.10;;;21.10;79.50;;;;;;4902045;28;86922;-72
2022/07/20 03:48:02;;;;;;;6.45;2.97;;;21.00;79.60;;;;;;4894861;28;87758;-70
2022/07/20 03:50:28;;;;;;;7.68;3.42;;;21.10;80.30;;;;;;4878350;28;90016;-71
2022/07/20 03:52:55;;;;;;;10.95;3.47;;;21.10;80.40;;;;;;4863634;29;87147;-71
2022/07/20 03:55:21;;;;;;;5.90;3.28;;;21.10;81.20;;;;;;4877630;28;87159;-71
2022/07/20 03:57:47;;;;;;;7.25;3.45;;;21.10;80.80;;;;;;4873601;28;86333;-71
2022/07/20 04:00:13;;;;;;;7.43;2.92;;;21.20;81.20;;;;;;4863429;28;88214;-71
2022/07/20 04:02:39;;;;;;;8.70;3.30;;;21.20;81.10;;;;;;4874971;28;87067;-72
2022/07/20 04:05:05;;;;;;;7.60;3.63;;;21.30;80.30;;;;;;4887426;28;88310;-71
2022/07/20 04:07:31;;;;;;;9.07;3.70;;;21.30;80.10;;;;;;4894275;28;87043;-72
2022/07/20 04:09:56;;;;;;;10.32;3.30;;;21.40;78.60;;;;;;4862899;28;86972;-71
2022/07/20 04:12:24;;;;;;;12.82;3.33;;;21.50;78.00;;;;;;4878235;28;87595;-72
2022/07/20 04:14:52;;;;;;;9.48;3.17;;;21.70;78.20;;;;;;4882199;28;87006;-71
2022/07/20 04:17:19;;;;;;;8.18;2.90;;;21.70;78.20;;;;;;4871264;28;87529;-73
2022/07/20 04:19:46;;;;;;;9.23;3.53;;;21.80;77.70;;;;;;4867393;28;87262;-72
2022/07/20 04:22:12;;;;;;;9.40;3.20;;;22.20;76.70;;;;;;4869154;28;86140;-71
2022/07/20 04:24:38;;;;;;;6.50;3.05;;;22.60;75.20;;;;;;4863396;29;86834;-72
2022/07/20 04:27:04;;;;;;;8.02;3.45;;;23.00;74.00;;;;;;4863343;29;87869;-70
2022/07/20 04:29:30;;;;;;;5.55;2.92;;;23.30;72.90;;;;;;4870707;28;88726;-71
2022/07/20 04:31:57;;;;;;;7.07;3.80;;;23.80;71.70;;;;;;4875524;28;88508;-70
2022/07/20 04:34:23;;;;;;;10.23;4.68;;;24.10;70.10;;;;;;4882021;28;87315;-70
2022/07/20 04:36:49;;;;;;;12.48;3.83;;;24.60;68.60;;;;;;4892826;28;87219;-72
2022/07/20 04:39:14;;;;;;;7.13;3.50;;;25.00;67.10;;;;;;4871461;28;87068;-71
2022/07/20 04:41:40;;;;;;;9.50;3.70;;;25.40;65.60;;;;;;4862678;28;87693;-70
2022/07/20 04:44:07;;;;;;;6.97;3.17;;;25.50;65.40;;;;;;4867296;28;86989;-71
2022/07/20 04:46:33;;;;;;;8.60;3.70;;;25.90;64.70;;;;;;4880288;28;86779;-71
2022/07/20 04:48:59;;;;;;;14.15;3.95;;;26.30;63.60;;;;;;4869526;28;87363;-70
2022/07/20 04:51:24;;;;;;;5.90;3.45;;;26.60;62.00;;;;;;4862889;28;88313;-70
2022/07/20 04:53:51;;;;;;;6.13;3.13;;;26.40;63.70;;;;;;4862951;28;87990;-70
2022/07/20 04:56:18;;;;;;;6.07;3.03;;;26.60;62.60;;;;;;4882173;28;87339;-72
2022/07/20 04:58:45;;;;;;;5.55;3.65;;;27.00;61.90;;;;;;4875717;28;90154;-74
2022/07/20 05:01:10;;;;;;;9.18;3.58;;;27.30;61.00;;;;;;4862743;28;87247;-70
2022/07/20 05:03:36;;;;;;;6.32;3.30;;;27.80;59.80;;;;;;4864431;28;87053;-72
2022/07/20 05:06:02;;;;;;;9.30;3.88;;;28.30;58.80;;;;;;4881919;28;86965;-72
2022/07/20 05:08:28;;;;;;;11.20;3.53;;;28.90;56.80;;;;;;4887711;28;88015;-73
2022/07/20 05:10:53;;;;;;;9.25;3.75;;;28.70;57.50;;;;;;4900227;28;86722;-73
2022/07/20 05:13:19;;;;;;;8.25;3.85;;;28.80;56.90;;;;;;4875271;28;86943;-73
2022/07/20 05:15:45;;;;;;;10.30;4.03;;;29.20;55.30;;;;;;4862163;28;87039;-70
2022/07/20 05:18:11;;;;;;;10.82;3.88;;;28.30;57.60;;;;;;4870850;28;88331;-72
2022/07/20 05:20:36;;;;;;;12.30;3.75;;;28.60;56.20;;;;;;4871093;28;87885;-73
2022/07/20 05:23:02;;;;;;;9.73;4.25;;;28.70;55.90;;;;;;4873146;28;87050;-70
2022/07/20 05:25:28;;;;;;;13.93;4.15;;;28.50;56.90;;;;;;4881141;28;87024;-71
2022/07/20 05:27:53;;;;;;;9.55;4.05;;;28.50;56.40;;;;;;4880152;28;87450;-75
2022/07/20 05:30:19;;;;;;;9.65;4.28;;;28.30;57.20;;;;;;4878839;28;87642;-71
2022/07/20 05:32:45;;;;;;;19.08;4.35;;;28.50;56.20;;;;;;4879319;28;86949;-74
2022/07/20 05:35:10;;;;;;;10.02;4.85;;;28.90;56.10;;;;;;4868072;28;86018;-73
2022/07/20 05:37:36;;;;;;;7.05;4.03;;;29.50;54.80;;;;;;4899181;28;87035;-71
2022/07/20 05:40:03;;;;;;;8.05;4.43;;;30.70;51.90;;;;;;4878924;28;87184;-72
2022/07/20 05:42:28;;;;;;;9.13;4.75;;;30.40;53.10;;;;;;4862628;28;87871;-72
2022/07/20 05:44:54;;;;;;;15.27;4.97;;;30.60;52.20;;;;;;4861417;28;87019;-71
2022/07/20 05:47:21;;;;;;;11.68;5.30;;;30.80;51.60;;;;;;4861445;28;87270;-73
2022/07/20 05:49:48;;;;;;;13.18;5.53;;;30.50;52.10;;;;;;4873138;28;87189;-71
2022/07/20 05:52:15;;;;;;;13.75;5.80;;;30.50;53.00;;;;;;4878785;28;87284;-74
2022/07/20 05:54:40;;;;;;;8.05;5.00;;;31.60;50.10;;;;;;4890537;28;87556;-71
2022/07/20 05:57:06;;;;;;;11.40;5.28;;;31.50;50.20;;;;;;4861842;28;87231;-71
2022/07/20 05:59:32;;;;;;;13.15;5.65;;;31.10;51.00;;;;;;4869068;28;86745;-73
2022/07/20 06:01:57;;;;;;;12.07;4.88;;;31.30;50.20;;;;;;4876336;28;87608;-72
2022/07/20 06:04:23;;;;;;;12.52;5.00;;;32.10;50.00;;;;;;4880943;28;87137;-71
2022/07/20 06:06:49;;;;;;;18.50;5.90;;;31.80;50.20;;;;;;4879304;28;88268;-72
2022/07/20 06:09:15;;;;;;;11.90;5.05;;;32.40;49.70;;;;;;4866026;28;87012;-75
2022/07/20 06:11:40;;;;;;;22.20;6.20;;;34.20;46.90;;;;;;4895728;28;87025;-74
2022/07/20 06:14:06;;;;;;;10.23;5.05;;;35.70;42.90;;;;;;4885493;28;87022;-72
2022/07/20 06:16:32;;;;;;;8.52;4.75;;;34.50;46.50;;;;;;4893250;28;87639;-75
2022/07/20 06:18:58;;;;;;;14.73;5.30;;;35.70;44.40;;;;;;4873089;28;87106;-75
2022/07/20 06:21:23;;;;;;;12.15;5.00;;;37.20;42.70;;;;;;4862087;29;87348;-73
2022/07/20 06:23:49;;;;;;;12.70;5.03;;;38.20;40.30;;;;;;4862231;29;86357;-72
2022/07/20 06:26:15;;;;;;;15.02;5.72;;;38.70;40.50;;;;;;4872637;28;87219;-72
2022/07/20 06:28:41;;;;;;;12.77;5.45;;;39.70;40.00;;;;;;4880004;28;87398;-74
2022/07/20 06:31:07;;;;;;;9.85;5.07;;;39.60;40.40;;;;;;4880589;28;87611;-79
2022/07/20 06:33:33;;;;;;;13.70;5.80;;;40.20;39.40;;;;;;4883933;28;86975;-73
2022/07/20 06:36:00;;;;;;;9.70;5.20;;;41.20;37.80;;;;;;4872397;28;86645;-74
2022/07/20 06:38:26;;;;;;;13.30;5.55;;;41.80;37.50;;;;;;4893536;28;87852;-76
2022/07/20 06:40:51;;;;;;;15.18;5.18;;;42.00;37.50;;;;;;4902548;28;87005;-74
2022/07/20 06:43:17;;;;;;;9.52;5.03;;;42.10;37.40;;;;;;4902627;28;87076;-76
2022/07/20 06:45:43;;;;;;;10.13;5.65;;;42.60;37.60;;;;;;4880596;28;87226;-78
2022/07/20 06:48:08;;;;;;;8.35;5.70;;;42.80;36.00;;;;;;4883703;28;86236;-72
2022/07/20 06:50:34;;;;;;;11.75;5.65;;;41.90;37.00;;;;;;4881903;28;86990;-72
2022/07/20 06:53:00;;;;;;;7.55;4.88;;;41.60;37.70;;;;;;4879868;28;87056;-76
2022/07/20 06:55:25;;;;;;;7.18;5.35;;;41.90;36.60;;;;;;4884933;28;87886;-72
2022/07/20 06:57:51;;;;;;;20.65;8.15;;;42.60;36.30;;;;;;4902221;28;88853;-74
2022/07/20 07:00:17;;;;;;;9.98;5.80;;;43.40;35.40;;;;;;4886659;28;87126;-72
2022/07/20 07:02:42;;;;;;;9.15;5.18;;;43.50;35.20;;;;;;4864272;28;87081;-76
2022/07/20 07:05:09;;;;;;;10.40;5.10;;;44.00;35.00;;;;;;4881124;28;86937;-75
2022/07/20 07:07:36;;;;;;;12.73;6.32;;;44.50;34.10;;;;;;4876164;28;86991;-73
2022/07/20 07:10:03;;;;;;;9.85;7.03;;;43.80;34.40;;;;;;4885198;28;87543;-78
2022/07/20 07:12:29;;;;;;;9.23;6.22;;;43.70;34.40;;;;;;4901677;28;86619;-75
2022/07/20 07:14:54;;;;;;;10.27;6.97;;;45.30;33.80;;;;;;4896177;28;87382;-77
2022/07/20 07:17:20;;;;;;;11.13;6.13;;;45.20;33.20;;;;;;4883735;28;87085;-77
2022/07/20 07:19:46;;;;;;;13.07;5.82;;;43.60;33.70;;;;;;4882053;28;87905;-75
2022/07/20 07:22:12;;;;;;;6.82;5.60;;;42.60;35.80;;;;;;4882285;28;87041;-76
2022/07/20 07:24:37;;;;;;;13.18;6.25;;;42.80;36.80;;;;;;4879112;28;86809;-74
2022/07/20 07:27:04;;;;;;;11.60;5.60;;;43.50;35.10;;;;;;4871993;28;86960;-72
2022/07/20 07:29:29;;;;;;;8.38;6.63;;;44.50;34.40;;;;;;4882106;28;86999;-77
2022/07/20 07:32:01;;;;;;;9.90;6.22;;;44.90;34.00;;;;;;4882012;28;86737;-72
2022/07/20 07:34:28;;;;;;;8.18;6.07;;;45.90;33.30;;;;;;4880345;28;87292;-75
2022/07/20 07:36:54;;;;;;;7.28;5.57;;;46.90;33.60;;;;;;4862854;29;87511;-72
2022/07/20 07:39:20;;;;;;;8.93;6.07;;;47.90;32.00;;;;;;4877565;28;87068;-74
2022/07/20 07:41:46;;;;;;;7.97;6.05;;;49.30;31.10;;;;;;4881275;28;86980;-76
2022/07/20 07:44:12;;;;;;;11.57;7.50;;;50.20;30.90;;;;;;4880949;28;87938;-75
2022/07/20 07:46:37;;;;;;;7.90;7.05;;;50.40;30.00;;;;;;4863047;28;87813;-74
2022/07/20 07:49:03;;;;;;;7.85;6.60;;;49.50;30.40;;;;;;4870476;28;87133;-72
2022/07/20 07:51:29;;;;;;;8.40;6.72;;;48.30;31.30;;;;;;4882297;28;86797;-74
2022/07/20 07:53:56;;;;;;;8.07;5.85;;;47.40;32.10;;;;;;4889953;28;87073;-70
2022/07/20 07:56:22;;;;;;;9.23;6.13;;;46.90;32.50;;;;;;4885995;28;86936;-73
2022/07/20 07:58:48;;;;;;;11.05;6.57;;;48.00;31.80;;;;;;4881220;28;86905;-72
2022/07/20 08:01:14;;;;;;;12.23;6.43;;;48.90;31.00;;;;;;4882910;28;86693;-72
2022/07/20 08:03:40;;;;;;;13.55;8.00;;;48.00;31.80;;;;;;4880867;28;87043;-75
2022/07/20 08:06:06;;;;;;;12.73;7.57;;;48.80;31.30;;;;;;4881995;28;87394;-73
2022/07/20 08:08:32;;;;;;;9.48;6.75;;;48.40;31.30;;;;;;4880922;28;87427;-72
2022/07/20 08:10:58;;;;;;;9.82;7.38;;;50.00;29.90;;;;;;4874620;28;87157;-75
2022/07/20 08:13:24;;;;;;;7.82;6.00;;;50.90;29.30;;;;;;4893489;28;87551;-71
2022/07/20 08:15:50;;;;;;;9.43;8.18;;;51.10;29.50;;;;;;4880016;28;87363;-71
2022/07/20 08:18:16;;;;;;;11.32;7.50;;;51.40;29.60;;;;;;4880693;28;86924;-74
2022/07/20 08:20:42;;;;;;;9.95;8.32;;;51.90;29.00;;;;;;4880781;28;86972;-71
2022/07/20 08:23:08;;;;;;;9.32;7.70;;;52.10;29.00;;;;;;4882670;28;87260;-74
2022/07/20 08:25:34;;;;;;;11.70;9.07;;;52.60;29.30;;;;;;4883646;28;88338;-73
2022/07/20 08:28:11;;;;;;;12.38;8.85;;;53.20;29.60;;;;;;4873421;28;87335;-73
2022/07/20 08:30:39;;;;;;;10.00;7.53;;;52.70;29.30;;;;;;4879772;28;87134;-75
2022/07/20 08:33:05;;;;;;;11.38;8.98;;;53.00;29.50;;;;;;4879887;28;88572;-73
2022/07/20 08:35:30;;;;;;;10.90;9.43;;;53.90;28.80;;;;;;4879316;28;88785;-76
2022/07/20 08:37:57;;;;;;;11.52;9.13;;;54.40;28.30;;;;;;4880943;28;87044;-71
2022/07/20 08:40:23;;;;;;;11.40;10.13;;;54.70;28.00;;;;;;4880671;28;87063;-74
2022/07/20 08:42:49;;;;;;;14.20;9.80;;;54.30;28.60;;;;;;4879208;28;87282;-73
2022/07/20 08:45:14;;;;;;;13.10;9.93;;;53.90;29.00;;;;;;4874850;28;87162;-73
2022/07/20 08:47:42;;;;;;;11.02;8.95;;;54.70;28.40;;;;;;4883776;28;86793;-75
2022/07/20 08:50:08;;;;;;;12.88;9.75;;;54.80;28.00;;;;;;4898007;28;86255;-76
2022/07/20 08:52:34;;;;;;;11.40;10.15;;;54.90;28.10;;;;;;4899179;28;87301;-71
2022/07/20 08:55:00;;;;;;;11.77;9.70;;;55.00;28.40;;;;;;4893731;28;86938;-74
2022/07/20 08:57:26;;;;;;;13.88;10.02;;;55.50;28.10;;;;;;4879156;28;88519;-74
2022/07/20 08:59:51;;;;;;;13.57;9.68;;;54.90;28.90;;;;;;4878350;28;86852;-74
2022/07/20 09:02:17;;;;;;;14.38;11.38;;;54.70;29.00;;;;;;4880739;28;87309;-71
2022/07/20 09:04:57;;;;;;;11.25;9.85;;;53.90;29.40;;;;;;4878931;28;87033;-72
2022/07/20 09:07:46;;;;;;;15.07;11.45;;;54.20;29.20;;;;;;4868726;28;87073;-73
2022/07/20 09:10:15;;;;;;;12.82;11.57;;;54.40;29.10;;;;;;4877608;28;86995;-75
2022/07/20 09:12:55;;;;;;;14.07;9.95;;;53.40;30.50;;;;;;4879778;28;87269;-73
2022/07/20 09:15:29;;;;;;;10.45;9.45;;;52.80;30.00;;;;;;4883400;28;86893;-72
2022/07/20 09:18:16;;;;;;;10.40;9.48;;;49.80;32.10;;;;;;4867513;28;87267;-72
2022/07/20 09:20:45;;;;;;;14.23;9.73;;;50.70;31.90;;;;;;4870511;28;87094;-73
2022/07/20 09:23:40;;;;;;;11.32;10.00;;;52.00;30.50;;;;;;4866097;28;88156;-71
2022/07/20 09:26:10;;;;;;;12.52;10.20;;;52.40;31.00;;;;;;4877763;28;88941;-73
2022/07/20 09:28:40;;;;;;;16.48;11.35;;;53.70;29.90;;;;;;4884298;28;87098;-71
2022/07/20 09:31:25;;;;;;;15.43;11.32;;;53.90;29.50;;;;;;4877341;28;87125;-75
2022/07/20 09:33:54;;;;;;;11.57;10.38;;;52.30;30.00;;;;;;4876016;28;87007;-77
2022/07/20 09:36:22;;;;;;;14.20;10.65;;;52.10;31.50;;;;;;4886017;28;87044;-72
2022/07/20 09:38:48;;;;;;;13.32;11.23;;;52.90;29.90;;;;;;4885309;28;87061;-73
2022/07/20 09:41:22;;;;;;;13.85;11.77;;;52.40;30.40;;;;;;4878477;28;86343;-76
2022/07/20 09:43:47;;;;;;;13.80;12.43;;;53.60;29.40;;;;;;4878043;28;87524;-74
2022/07/20 09:46:13;;;;;;;14.77;11.77;;;54.00;29.30;;;;;;4859111;28;86942;-71
2022/07/20 09:48:50;;;;;;;13.15;10.05;;;54.60;29.60;;;;;;4858990;28;88219;-75
2022/07/20 09:51:18;;;;;;;14.98;12.18;;;55.00;29.30;;;;;;4876157;28;87385;-72
2022/07/20 09:53:44;;;;;;;15.10;13.70;;;55.80;29.00;;;;;;4878352;28;88053;-75
2022/07/20 09:56:10;;;;;;;14.63;13.20;;;55.60;28.60;;;;;;4875432;28;87905;-70
2022/07/20 09:58:37;;;;;;;12.02;10.82;;;55.80;28.50;;;;;;4872439;28;87030;-75
2022/07/20 10:01:03;;;;;;;13.27;11.98;;;54.50;29.10;;;;;;4878769;28;86726;-74
2022/07/20 10:03:29;;;;;;;12.18;10.45;;;55.10;29.50;;;;;;4891770;28;88117;-74
2022/07/20 10:05:55;;;;;;;14.50;11.10;;;55.70;28.90;;;;;;4868921;28;87456;-73
2022/07/20 10:08:23;;;;;;;12.70;9.85;;;55.90;28.90;;;;;;4863338;29;87320;-75
2022/07/20 10:10:48;;;;;;;12.55;11.25;;;55.20;28.50;;;;;;4885652;28;86941;-72
2022/07/20 10:13:15;;;;;;;12.82;11.52;;;54.50;29.30;;;;;;4900789;28;88595;-72
2022/07/20 10:15:51;;;;;;;11.02;10.02;;;52.40;30.00;;;;;;4874569;28;87260;-73
2022/07/20 10:18:18;;;;;;;11.38;10.35;;;51.30;30.30;;;;;;4870689;28;86936;-73
2022/07/20 10:20:44;;;;;;;12.50;9.65;;;49.90;30.80;;;;;;4882078;28;87034;-70
2022/07/20 10:23:16;;;;;;;10.80;9.77;;;46.80;31.90;;;;;;4880150;28;87203;-73
2022/07/20 10:25:43;;;;;;;9.15;7.97;;;45.30;32.50;;;;;;4878559;28;87389;-73
2022/07/20 10:28:28;;;;;;;10.63;7.93;;;43.60;34.30;;;;;;4867992;28;87082;-72
2022/07/20 10:31:04;;;;;;;9.45;8.02;;;41.60;35.80;;;;;;4864519;29;86266;-74
2022/07/20 10:33:33;;;;;;;8.65;7.00;;;40.50;38.50;;;;;;4864158;29;87471;-71
2022/07/20 10:38:56;;;;;;;10.05;6.40;;;39.30;38.10;;;;;;4902407;28;88079;-72
2022/07/20 10:41:31;;;;;;;8.95;5.88;;;39.00;38.60;;;;;;4875831;28;87015;-70
2022/07/20 10:44:22;;;;;;;6.82;5.00;;;38.60;41.50;;;;;;4864725;29;87153;-72
2022/07/20 10:46:49;;;;;;;7.93;5.57;;;38.60;40.30;;;;;;4863871;28;86958;-75
2022/07/20 10:49:16;;;;;;;6.18;5.57;;;38.80;39.40;;;;;;4882626;28;86837;-74
2022/07/20 10:51:42;;;;;;;12.35;5.95;;;38.70;39.60;;;;;;4873318;28;87139;-73
2022/07/20 10:54:36;;;;;;;6.82;5.80;;;38.20;39.80;;;;;;4888776;28;86701;-76
2022/07/20 10:57:02;;;;;;;6.65;4.32;;;38.10;39.00;;;;;;4866175;28;87732;-74
2022/07/20 10:59:28;;;;;;;7.80;4.88;;;38.30;39.90;;;;;;4873065;28;87194;-72
2022/07/20 11:01:54;;;;;;;9.13;5.45;;;38.20;40.50;;;;;;4883710;28;86961;-74
2022/07/20 11:04:21;;;;;;;9.60;6.35;;;38.30;40.30;;;;;;4889254;28;88210;-72
2022/07/20 11:06:47;;;;;;;6.63;5.03;;;38.20;39.40;;;;;;4902105;28;87896;-74
2022/07/20 11:09:13;;;;;;;11.60;5.72;;;38.20;42.30;;;;;;4901611;28;87077;-73
2022/07/20 11:11:40;;;;;;;8.80;5.47;;;37.60;41.50;;;;;;4894140;28;87094;-70
2022/07/20 11:14:07;;;;;;;8.15;4.82;;;37.30;41.30;;;;;;4868600;28;88136;-74
2022/07/20 11:16:35;;;;;;;8.48;5.68;;;37.30;43.50;;;;;;4882665;28;87828;-76
2022/07/20 11:19:02;;;;;;;9.00;5.13;;;36.80;44.90;;;;;;4886649;28;87083;-75
2022/07/20 11:21:30;;;;;;;11.15;6.13;;;37.00;43.00;;;;;;4882807;28;86447;-72
2022/07/20 11:23:56;;;;;;;8.20;5.43;;;36.60;45.10;;;;;;4877535;28;87253;-72
2022/07/20 11:26:22;;;;;;;10.25;5.65;;;36.50;44.00;;;;;;4864564;29;87888;-74
2022/07/20 11:28:53;;;;;;;11.48;6.05;;;36.30;45.20;;;;;;4864114;29;88128;-75
2022/07/20 11:31:23;;;;;;;8.40;5.40;;;36.40;45.00;;;;;;4866121;28;86906;-71
2022/07/20 11:33:51;;;;;;;8.07;5.18;;;36.50;44.80;;;;;;4878320;28;87496;-71
2022/07/20 11:36:32;;;;;;;8.85;5.93;;;35.90;46.50;;;;;;4864290;29;87094;-72
2022/07/20 11:39:07;;;;;;;7.18;4.70;;;36.00;44.40;;;;;;4864961;28;87088;-71
2022/07/20 11:41:41;;;;;;;8.27;5.10;;;36.00;44.90;;;;;;4864221;29;86967;-74
2022/07/20 11:44:23;;;;;;;12.65;5.85;;;36.20;44.40;;;;;;4874922;28;87441;-71
2022/07/20 11:46:50;;;;;;;10.55;5.28;;;36.10;44.30;;;;;;4871230;28;87085;-72
2022/07/20 11:49:17;;;;;;;7.82;5.00;;;35.80;46.00;;;;;;4864467;29;86806;-73
2022/07/20 11:51:52;;;;;;;10.77;5.93;;;35.90;43.80;;;;;;4864126;28;87108;-74
2022/07/20 11:54:30;;;;;;;12.25;5.63;;;35.80;46.70;;;;;;4876075;28;89011;-70
2022/07/20 11:56:56;;;;;;;8.55;5.22;;;35.60;45.40;;;;;;4890588;28;87906;-71
2022/07/20 11:59:22;;;;;;;11.07;5.68;;;35.20;45.90;;;;;;4883154;28;87171;-71
2022/07/20 12:01:53;;;;;;;9.85;5.20;;;35.40;45.30;;;;;;4863538;29;86984;-74
2022/07/20 12:04:20;;;;;;;9.27;5.18;;;35.40;46.20;;;;;;4868113;28;87317;-72
2022/07/20 12:06:46;;;;;;;7.18;4.70;;;35.50;46.80;;;;;;4882495;28;87911;-74
2022/07/20 12:09:18;;;;;;;8.35;5.20;;;35.70;46.80;;;;;;4872031;28;87165;-72
2022/07/20 12:12:04;;;;;;;7.85;4.43;;;35.30;48.60;;;;;;4879627;28;86919;-71
2022/07/20 12:14:36;;;;;;;12.15;5.40;;;35.30;46.30;;;;;;4869304;28;88632;-76
2022/07/20 12:17:11;;;;;;;11.52;5.32;;;35.20;48.10;;;;;;4882636;28;87251;-71
2022/07/20 12:19:39;;;;;;;9.63;4.93;;;35.30;46.10;;;;;;4882231;28;87829;-72
2022/07/20 12:22:04;;;;;;;6.97;5.25;;;35.40;46.40;;;;;;4886162;28;87626;-72
2022/07/20 12:24:48;;;;;;;7.72;4.85;;;35.40;46.40;;;;;;4881488;28;87074;-75
2022/07/20 12:27:14;;;;;;;6.57;5.32;;;35.60;45.30;;;;;;4882296;28;86923;-71
2022/07/20 12:29:40;;;;;;;11.13;4.63;;;35.50;46.20;;;;;;4882127;28;86967;-74
2022/07/20 12:32:07;;;;;;;9.07;4.75;;;35.40;44.90;;;;;;4882276;28;87068;-75
2022/07/20 12:34:53;;;;;;;9.65;4.80;;;35.30;47.10;;;;;;4873814;28;87715;-71
2022/07/20 12:37:21;;;;;;;7.30;4.75;;;35.60;44.60;;;;;;4897171;28;86900;-70
2022/07/20 12:39:53;;;;;;;7.90;4.95;;;35.10;45.00;;;;;;4882370;28;87239;-74
2022/07/20 12:42:24;;;;;;;8.55;4.55;;;35.20;44.00;;;;;;4882862;28;87553;-75
2022/07/20 12:45:03;;;;;;;8.85;4.93;;;35.40;46.50;;;;;;4878244;28;89073;-73
2022/07/20 12:47:29;;;;;;;6.88;4.60;;;34.90;47.80;;;;;;4887783;28;87962;-74
2022/07/20 12:49:55;;;;;;;9.20;4.97;;;35.40;44.80;;;;;;4901558;28;87025;-72
2022/07/20 12:52:21;;;;;;;10.80;5.38;;;35.50;44.30;;;;;;4898209;28;86903;-72
2022/07/20 12:54:46;;;;;;;9.57;5.30;;;35.30;47.40;;;;;;4870109;28;87589;-73
2022/07/20 12:57:17;;;;;;;5.55;4.50;;;35.40;46.50;;;;;;4880359;28;87007;-72
2022/07/20 12:59:43;;;;;;;8.90;5.03;;;35.40;47.20;;;;;;4879302;28;87533;-71
2022/07/20 13:02:09;;;;;;;7.78;4.32;;;35.60;44.40;;;;;;4901558;28;86472;-72
2022/07/20 13:04:34;;;;;;;9.60;4.40;;;35.80;43.60;;;;;;4900192;28;87278;-72
2022/07/20 13:07:00;;;;;;;5.97;4.10;;;35.50;46.10;;;;;;4899049;28;87302;-73
2022/07/20 13:09:26;;;;;;;6.75;4.28;;;35.30;46.90;;;;;;4863494;28;88015;-71
2022/07/20 13:11:52;;;;;;;6.35;4.38;;;35.40;42.50;;;;;;4874481;28;87261;-72
2022/07/20 13:14:21;;;;;;;5.63;4.03;;;35.40;43.60;;;;;;4865039;28;87498;-74
2022/07/20 13:16:48;;;;;;;6.18;4.18;;;35.50;44.50;;;;;;4881097;28;87974;-71
2022/07/20 13:19:14;;;;;;;7.55;4.00;;;35.60;42.60;;;;;;4882351;28;87088;-74
2022/07/20 13:21:41;;;;;;;10.73;4.85;;;35.90;42.70;;;;;;4881649;28;87081;-72
2022/07/20 13:24:08;;;;;;;6.57;3.97;;;36.10;44.70;;;;;;4881956;28;87216;-72
2022/07/20 13:26:34;;;;;;;8.02;4.00;;;36.00;43.30;;;;;;4867617;28;86306;-71
2022/07/20 13:29:01;;;;;;;8.45;3.72;;;36.20;42.00;;;;;;4881784;28;87066;-72
2022/07/20 13:31:28;;;;;;;6.43;3.72;;;36.20;42.70;;;;;;4881393;28;86949;-71
2022/07/20 13:33:54;;;;;;;8.55;4.07;;;36.40;43.10;;;;;;4881381;28;87828;-71
2022/07/20 13:36:20;;;;;;;7.80;4.18;;;36.50;42.10;;;;;;4863552;28;89046;-73
2022/07/20 13:38:48;;;;;;;8.15;4.05;;;36.70;43.80;;;;;;4900813;28;86572;-75
2022/07/20 13:41:16;;;;;;;8.25;3.72;;;36.90;42.00;;;;;;4899988;28;87232;-75
2022/07/20 13:43:42;;;;;;;5.50;3.90;;;37.40;42.10;;;;;;4900158;28;87255;-75
2022/07/20 13:46:08;;;;;;;5.38;3.63;;;37.80;39.10;;;;;;4881868;28;87378;-71
2022/07/20 13:48:34;;;;;;;11.18;4.65;;;37.90;37.60;;;;;;4881642;28;87250;-71
2022/07/20 13:51:00;;;;;;;6.90;4.07;;;37.80;39.50;;;;;;4900540;28;86271;-72
2022/07/20 13:53:26;;;;;;;4.50;3.78;;;37.50;39.40;;;;;;4900269;28;87184;-74
2022/07/20 13:55:52;;;;;;;5.22;3.83;;;37.30;40.90;;;;;;4871359;28;87751;-72
2022/07/20 13:58:18;;;;;;;5.68;4.15;;;37.50;41.60;;;;;;4861937;29;87868;-74
2022/07/20 14:00:44;;;;;;;6.00;3.92;;;37.10;41.10;;;;;;4862186;29;86944;-71
2022/07/20 14:03:10;;;;;;;9.32;4.35;;;37.00;39.80;;;;;;4877016;28;87255;-71
2022/07/20 14:05:36;;;;;;;6.00;3.92;;;37.10;39.10;;;;;;4869210;28;87386;-73
2022/07/20 14:08:02;;;;;;;6.32;3.88;;;37.20;40.00;;;;;;4862728;29;87227;-75
2022/07/20 14:10:27;;;;;;;6.03;3.40;;;37.40;39.80;;;;;;4877691;28;86949;-73
2022/07/20 14:12:53;;;;;;;10.25;4.82;;;37.10;40.40;;;;;;4900471;28;87318;-71
2022/07/20 14:15:19;;;;;;;5.07;3.33;;;37.00;40.80;;;;;;4880173;28;86402;-72
2022/07/20 14:17:45;;;;;;;5.30;3.38;;;36.90;40.40;;;;;;4861831;29;87147;-72
2022/07/20 14:20:12;;;;;;;7.88;3.30;;;36.70;40.30;;;;;;4862571;29;86948;-74
2022/07/20 14:22:38;;;;;;;6.70;4.30;;;36.30;40.70;;;;;;4860653;29;88653;-72
2022/07/20 14:25:05;;;;;;;7.22;3.15;;;35.80;40.60;;;;;;4861972;28;87877;-74
2022/07/20 14:27:32;;;;;;;6.43;4.43;;;35.60;42.40;;;;;;4886174;28;87841;-72
2022/07/20 14:29:58;;;;;;;5.97;3.88;;;35.70;41.50;;;;;;4900206;28;86901;-73
2022/07/20 14:32:25;;;;;;;6.63;4.05;;;35.40;43.00;;;;;;4900151;28;87604;-71
2022/07/20 14:34:51;;;;;;;5.70;3.38;;;35.60;40.50;;;;;;4893220;28;87161;-73
2022/07/20 14:37:16;;;;;;;4.88;3.85;;;35.70;40.30;;;;;;4881233;28;87377;-73
2022/07/20 14:39:42;;;;;;;8.02;3.95;;;35.70;40.60;;;;;;4887142;28;86510;-71
2022/07/20 14:42:08;;;;;;;4.85;3.55;;;35.90;42.40;;;;;;4898978;28;87134;-73
2022/07/20 14:44:34;;;;;;;8.77;3.88;;;36.10;42.50;;;;;;4893300;28;87223;-71
2022/07/20 14:47:00;;;;;;;5.03;3.85;;;36.20;42.40;;;;;;4844385;28;92622;-72
2022/07/20 14:49:26;;;;;;;9.43;4.20;;;35.80;41.40;;;;;;4880481;28;87121;-72
2022/07/20 14:51:52;;;;;;;7.45;4.95;;;35.60;43.00;;;;;;4881787;28;87079;-75
2022/07/20 14:54:18;;;;;;;8.02;3.80;;;35.50;44.20;;;;;;4882389;28;87236;-71
2022/07/20 14:56:45;;;;;;;8.48;4.28;;;35.60;43.00;;;;;;4864798;29;86957;-72
2022/07/20 14:59:11;;;;;;;6.90;3.92;;;35.80;43.10;;;;;;4865114;29;86996;-72
2022/07/20 15:01:39;;;;;;;8.82;3.47;;;35.80;42.00;;;;;;4865884;29;87611;-71
2022/07/20 15:04:05;;;;;;;7.78;4.30;;;35.60;41.90;;;;;;4864735;29;86973;-75
2022/07/20 15:06:32;;;;;;;8.85;4.45;;;35.40;41.50;;;;;;4870935;28;86955;-73
2022/07/20 15:08:58;;;;;;;4.50;3.78;;;35.30;41.60;;;;;;4864970;29;87103;-71
2022/07/20 15:11:24;;;;;;;5.45;3.53;;;35.30;42.00;;;;;;4893765;28;88152;-75
2022/07/20 15:13:50;;;;;;;6.65;3.72;;;35.20;43.30;;;;;;4898720;28;87844;-73
2022/07/20 15:16:17;;;;;;;7.43;3.90;;;35.10;43.20;;;;;;4897522;28;86523;-71
2022/07/20 15:18:42;;;;;;;7.32;3.97;;;34.90;42.20;;;;;;4886889;28;87367;-74
2022/07/20 15:21:08;;;;;;;6.00;3.97;;;34.90;41.60;;;;;;4883267;28;87038;-71
2022/07/20 15:23:34;;;;;;;8.77;4.22;;;34.70;41.60;;;;;;4882871;28;87064;-71
2022/07/20 15:26:00;;;;;;;8.18;4.05;;;34.30;42.20;;;;;;4882771;28;87145;-71
2022/07/20 15:28:25;;;;;;;6.57;4.40;;;33.80;43.90;;;;;;4884384;28;86262;-71
2022/07/20 15:30:51;;;;;;;6.50;3.72;;;33.30;44.40;;;;;;4883707;28;87659;-74
2022/07/20 15:33:17;;;;;;;5.90;3.80;;;33.00;43.20;;;;;;4884174;28;87308;-74